Time;durP1;ratioP1;P1;durP2;ratioP2;P2;SDS_P1;SDS_P2;PMS_P1;PMS_P2;Temp;Humidity;BMP_temperature;BMP_pressure;BME280_temperature;BME280_humidity;BME280_pressure;Samples;Min_cycle;Max_cycle;Signal;HPM_P1;HPM_P2
2023/03/11 00:02:10;;;;;;;5.35;3.00;;;4.20;99.90;;;;;;4992120;28;20031;-50
2023/03/11 00:04:35;;;;;;;5.93;3.42;;;4.20;99.90;;;;;;4992015;28;20023;-49
2023/03/11 00:07:04;;;;;;;3.40;3.10;;;4.20;99.90;;;;;;4992049;28;20027;-53
2023/03/11 00:09:30;;;;;;;5.95;2.88;;;4.10;99.90;;;;;;4991926;28;20365;-53
2023/03/11 00:11:55;;;;;;;2.88;2.60;;;4.30;99.90;;;;;;4992149;28;20026;-51
2023/03/11 00:14:21;;;;;;;3.42;2.42;;;4.30;99.90;;;;;;4991940;28;20037;-51
2023/03/11 00:16:47;;;;;;;2.50;2.40;;;4.40;99.90;;;;;;4991493;28;20034;-51
2023/03/11 00:19:12;;;;;;;2.00;1.90;;;4.40;99.90;;;;;;4991781;28;20030;-52
2023/03/11 00:21:38;;;;;;;2.65;2.45;;;4.30;99.90;;;;;;4991651;28;20045;-53
2023/03/11 00:24:04;;;;;;;2.17;2.08;;;4.30;99.90;;;;;;4991844;28;20019;-50
2023/03/11 00:26:29;;;;;;;3.92;2.70;;;4.30;99.90;;;;;;4991596;28;20039;-49
2023/03/11 00:28:55;;;;;;;2.72;2.53;;;4.30;99.90;;;;;;4992044;28;20030;-49
2023/03/11 00:31:21;;;;;;;2.15;2.05;;;4.30;99.90;;;;;;4991712;28;20034;-49
2023/03/11 00:33:47;;;;;;;2.85;2.65;;;4.20;99.90;;;;;;4992224;28;20041;-51
2023/03/11 00:36:27;;;;;;;2.55;2.42;;;4.20;99.90;;;;;;4995464;28;20027;-51
2023/03/11 00:38:53;;;;;;;2.92;2.72;;;4.20;99.90;;;;;;4995642;28;20030;-50
2023/03/11 00:41:19;;;;;;;3.00;2.80;;;4.10;99.90;;;;;;4995407;28;20109;-52
2023/03/11 00:43:45;;;;;;;2.80;2.60;;;4.10;99.90;;;;;;4995325;28;20076;-52
2023/03/11 00:46:11;;;;;;;2.92;2.72;;;4.10;99.90;;;;;;4995187;28;20058;-51
2023/03/11 00:48:37;;;;;;;2.40;2.20;;;4.10;99.90;;;;;;4995037;28;20038;-55
2023/03/11 00:51:02;;;;;;;2.75;2.55;;;4.10;99.90;;;;;;4995051;28;20045;-50
2023/03/11 00:53:28;;;;;;;3.60;2.45;;;4.00;99.90;;;;;;4995222;28;20031;-52
2023/03/11 00:55:54;;;;;;;2.92;2.10;;;4.00;99.90;;;;;;4993804;28;20033;-51
2023/03/11 00:58:26;;;;;;;2.33;2.22;;;4.00;99.90;;;;;;4995104;28;20517;-49
2023/03/11 01:00:51;;;;;;;2.40;2.30;;;4.00;99.90;;;;;;4995085;28;20417;-55
2023/03/11 01:03:17;;;;;;;2.33;2.22;;;3.90;99.90;;;;;;4995167;28;20053;-52
2023/03/11 01:05:43;;;;;;;2.28;2.17;;;3.80;99.90;;;;;;4994812;28;20707;-54
2023/03/11 01:08:09;;;;;;;2.30;2.20;;;3.80;99.90;;;;;;4995017;28;20030;-48
2023/03/11 01:10:35;;;;;;;2.47;2.38;;;3.80;99.90;;;;;;4994705;28;20085;-52
2023/03/11 01:13:01;;;;;;;2.30;2.20;;;3.70;99.90;;;;;;4994745;28;20381;-49
2023/03/11 01:15:35;;;;;;;2.40;2.30;;;3.70;99.90;;;;;;4993449;28;20053;-50
2023/03/11 01:18:02;;;;;;;2.90;2.70;;;3.60;99.90;;;;;;4994652;28;20034;-51
2023/03/11 01:20:28;;;;;;;2.90;2.70;;;3.60;99.90;;;;;;4994550;28;20026;-50
2023/03/11 01:22:54;;;;;;;2.70;2.50;;;3.50;99.90;;;;;;4994814;28;20105;-53
2023/03/11 01:25:22;;;;;;;2.63;2.42;;;3.50;99.90;;;;;;4994582;28;20098;-50
2023/03/11 01:27:47;;;;;;;3.20;3.00;;;3.40;99.90;;;;;;4994581;28;20050;-49
2023/03/11 01:30:17;;;;;;;2.47;2.28;;;3.40;99.90;;;;;;4994498;28;20014;-51
2023/03/11 01:32:42;;;;;;;3.17;2.38;;;3.30;99.90;;;;;;4994302;28;20104;-52
2023/03/11 01:35:14;;;;;;;2.88;2.67;;;3.30;99.90;;;;;;4994431;28;20165;-49
2023/03/11 01:37:39;;;;;;;3.05;2.78;;;3.30;99.90;;;;;;4994297;28;20037;-49
2023/03/11 01:40:08;;;;;;;2.70;2.60;;;3.20;99.90;;;;;;4994282;28;20034;-50
2023/03/11 01:42:33;;;;;;;3.22;3.03;;;3.20;99.90;;;;;;4993996;28;20023;-51
2023/03/11 01:44:59;;;;;;;3.05;2.85;;;3.20;99.90;;;;;;4993921;28;20018;-50
2023/03/11 01:47:34;;;;;;;2.88;2.67;;;3.20;99.90;;;;;;4993860;28;20029;-54
2023/03/11 01:50:01;;;;;;;3.05;2.85;;;3.10;99.90;;;;;;4994253;28;20068;-53
2023/03/11 01:52:27;;;;;;;3.13;2.92;;;3.10;99.90;;;;;;4994028;28;20057;-55
2023/03/11 01:54:53;;;;;;;3.17;2.97;;;3.10;99.90;;;;;;4992790;28;20031;-50
2023/03/11 01:57:20;;;;;;;2.55;2.40;;;3.10;99.90;;;;;;4992701;28;20026;-52
2023/03/11 01:59:50;;;;;;;2.90;2.70;;;3.10;99.90;;;;;;4992977;28;20030;-51
2023/03/11 02:02:30;;;;;;;2.85;2.65;;;3.00;99.90;;;;;;4994159;28;20103;-50
2023/03/11 02:04:58;;;;;;;2.40;2.30;;;3.00;99.90;;;;;;4993830;28;20026;-51
2023/03/11 02:07:24;;;;;;;2.50;2.40;;;3.00;99.90;;;;;;4993914;28;20018;-50
2023/03/11 02:09:49;;;;;;;5.10;2.53;;;3.00;99.90;;;;;;4993681;28;20081;-48
2023/03/11 02:12:15;;;;;;;2.53;2.42;;;3.00;99.90;;;;;;4993877;28;20027;-48
2023/03/11 02:14:48;;;;;;;3.15;2.85;;;3.00;99.90;;;;;;4992031;28;20096;-49
2023/03/11 02:17:15;;;;;;;2.88;2.67;;;3.00;99.90;;;;;;4993769;28;20029;-50
2023/03/11 02:20:05;;;;;;;2.60;2.40;;;3.00;99.90;;;;;;4993292;28;20037;-53
2023/03/11 02:22:33;;;;;;;2.97;2.78;;;2.90;99.90;;;;;;4992105;28;20045;-50
2023/03/11 02:24:59;;;;;;;3.22;3.03;;;2.90;99.90;;;;;;4993355;28;20029;-49
2023/03/11 02:27:26;;;;;;;2.83;2.63;;;2.90;99.90;;;;;;4992094;28;20628;-54
2023/03/11 02:29:55;;;;;;;2.88;2.67;;;2.90;99.90;;;;;;4993390;28;20029;-52
2023/03/11 02:32:22;;;;;;;3.00;2.80;;;2.90;99.80;;;;;;4993319;28;20027;-50
2023/03/11 02:34:47;;;;;;;2.53;2.33;;;2.80;99.90;;;;;;4993371;28;20029;-49
2023/03/11 02:37:16;;;;;;;2.83;2.60;;;2.80;98.90;;;;;;4993230;28;20373;-49
2023/03/11 02:39:48;;;;;;;4.22;2.60;;;2.70;99.70;;;;;;4992987;28;20065;-49
2023/03/11 02:42:21;;;;;;;2.60;2.42;;;2.70;99.10;;;;;;4993333;28;20054;-48
2023/03/11 02:45:12;;;;;;;4.18;2.78;;;2.70;99.80;;;;;;4992951;28;20031;-49
2023/03/11 02:47:39;;;;;;;2.47;2.38;;;2.70;99.50;;;;;;4993003;28;20105;-48
2023/03/11 02:50:08;;;;;;;3.55;3.25;;;2.60;99.00;;;;;;4992994;28;20031;-53
2023/03/11 02:52:35;;;;;;;2.80;2.60;;;2.60;99.60;;;;;;4992939;28;20057;-48
2023/03/11 02:55:00;;;;;;;2.60;2.50;;;2.60;99.20;;;;;;4992876;28;20026;-51
2023/03/11 02:57:26;;;;;;;2.22;2.13;;;2.50;98.80;;;;;;4992866;28;20479;-54
2023/03/11 02:59:52;;;;;;;2.90;2.70;;;2.50;99.00;;;;;;4993050;28;20065;-49
2023/03/11 03:02:17;;;;;;;2.50;2.40;;;2.50;99.30;;;;;;4991837;28;20022;-50
2023/03/11 03:04:43;;;;;;;3.00;2.80;;;2.50;98.90;;;;;;4992800;28;20030;-54
2023/03/11 03:07:09;;;;;;;2.75;2.55;;;2.50;99.10;;;;;;4992793;28;20081;-49
2023/03/11 03:09:35;;;;;;;2.63;2.30;;;2.50;98.90;;;;;;4992715;28;20031;-51
2023/03/11 03:12:02;;;;;;;2.30;2.20;;;2.50;99.30;;;;;;4992744;28;20381;-50
2023/03/11 03:14:28;;;;;;;2.80;2.60;;;2.40;99.20;;;;;;4992503;28;20038;-50
2023/03/11 03:16:54;;;;;;;2.55;2.38;;;2.40;99.30;;;;;;4992620;28;20073;-52
2023/03/11 03:19:20;;;;;;;2.70;2.50;;;2.30;99.60;;;;;;4992639;28;20026;-49
2023/03/11 03:21:46;;;;;;;2.55;2.42;;;2.30;99.60;;;;;;4992329;28;20053;-50
2023/03/11 03:24:12;;;;;;;3.30;2.97;;;2.30;99.80;;;;;;4992452;28;20030;-50
2023/03/11 03:26:59;;;;;;;2.80;2.60;;;2.20;99.90;;;;;;4992269;28;20034;-50
2023/03/11 03:29:24;;;;;;;2.97;2.78;;;2.20;99.90;;;;;;4992429;28;20038;-54
2023/03/11 03:31:50;;;;;;;2.55;2.45;;;2.20;99.90;;;;;;4992491;28;20031;-50
2023/03/11 03:34:16;;;;;;;3.10;2.90;;;2.10;99.90;;;;;;4992347;28;20037;-49
2023/03/11 03:36:41;;;;;;;3.17;2.88;;;2.10;99.90;;;;;;4992262;28;20117;-48
2023/03/11 03:39:07;;;;;;;3.08;2.88;;;2.00;99.90;;;;;;4992330;28;20401;-49
2023/03/11 03:41:33;;;;;;;2.83;2.70;;;2.00;99.90;;;;;;4992166;28;20129;-49
2023/03/11 03:43:59;;;;;;;3.15;2.95;;;2.00;99.90;;;;;;4992159;28;20053;-49
2023/03/11 03:46:25;;;;;;;2.83;2.63;;;2.00;99.80;;;;;;4992375;28;20027;-53
2023/03/11 03:48:50;;;;;;;2.80;2.60;;;1.90;99.90;;;;;;4990957;28;20034;-51
2023/03/11 03:51:16;;;;;;;2.80;2.60;;;2.00;99.90;;;;;;4992093;28;20033;-49
2023/03/11 03:53:45;;;;;;;2.92;2.72;;;1.90;99.90;;;;;;4990850;28;20026;-50
2023/03/11 03:56:13;;;;;;;2.80;2.60;;;1.90;99.40;;;;;;4992283;28;20125;-49
2023/03/11 03:58:39;;;;;;;2.88;2.67;;;1.90;99.40;;;;;;4990796;28;20034;-54
2023/03/11 04:01:05;;;;;;;2.95;2.80;;;1.80;99.90;;;;;;4992300;28;20053;-49
2023/03/11 04:03:32;;;;;;;3.10;2.90;;;1.80;98.90;;;;;;4991970;28;20033;-52
2023/03/11 04:06:16;;;;;;;3.58;3.03;;;1.80;99.60;;;;;;4992125;28;20105;-49
2023/03/11 04:08:43;;;;;;;2.47;2.38;;;1.80;99.10;;;;;;4992643;28;20026;-52
2023/03/11 04:11:09;;;;;;;3.20;3.00;;;1.80;99.40;;;;;;4995986;28;20026;-53
2023/03/11 04:13:34;;;;;;;2.75;2.55;;;1.80;99.40;;;;;;4995768;28;20037;-51
2023/03/11 04:16:03;;;;;;;2.80;2.60;;;1.80;98.90;;;;;;4995946;28;20076;-53
2023/03/11 04:18:28;;;;;;;2.97;2.78;;;1.90;98.90;;;;;;4995655;28;20117;-51
2023/03/11 04:20:54;;;;;;;2.80;2.60;;;2.00;98.80;;;;;;4995784;28;20381;-51
2023/03/11 04:23:20;;;;;;;2.53;2.33;;;2.00;98.30;;;;;;4995811;28;20025;-49
2023/03/11 04:25:45;;;;;;;2.38;2.28;;;2.00;99.00;;;;;;4995633;28;20105;-49
2023/03/11 04:28:11;;;;;;;2.92;2.75;;;2.10;98.90;;;;;;4994143;28;20081;-52
2023/03/11 04:30:37;;;;;;;2.40;2.30;;;2.20;98.50;;;;;;4995461;28;20030;-51
2023/03/11 04:33:03;;;;;;;3.03;2.75;;;2.10;98.60;;;;;;4995635;28;20023;-51
2023/03/11 04:35:29;;;;;;;4.65;2.55;;;2.10;98.40;;;;;;4995309;28;20025;-50
2023/03/11 04:37:54;;;;;;;3.17;2.97;;;2.10;97.60;;;;;;4995400;28;20045;-49
2023/03/11 04:40:20;;;;;;;2.65;2.55;;;2.10;97.70;;;;;;4995624;28;20138;-49
2023/03/11 04:42:47;;;;;;;4.95;2.30;;;2.10;98.00;;;;;;4995156;28;20022;-49
2023/03/11 04:45:13;;;;;;;2.33;2.22;;;2.10;97.70;;;;;;4995389;28;20038;-50
2023/03/11 04:47:38;;;;;;;2.70;2.50;;;2.00;96.80;;;;;;4995886;28;20031;-53
2023/03/11 04:50:05;;;;;;;2.65;2.45;;;2.00;97.10;;;;;;4995599;28;20038;-53
2023/03/11 04:52:30;;;;;;;7.30;2.58;;;1.90;97.30;;;;;;4995137;28;20031;-52
2023/03/11 04:54:56;;;;;;;2.40;2.30;;;1.90;97.70;;;;;;4994042;28;20069;-53
2023/03/11 04:57:21;;;;;;;2.70;2.60;;;1.80;97.60;;;;;;4995262;28;20030;-49
2023/03/11 04:59:47;;;;;;;2.60;2.50;;;1.80;97.60;;;;;;4995150;28;20014;-51
2023/03/11 05:02:13;;;;;;;4.78;2.70;;;1.70;97.70;;;;;;4994993;28;20037;-50
2023/03/11 05:04:38;;;;;;;3.15;2.35;;;1.70;98.00;;;;;;4995185;28;20049;-50
2023/03/11 05:07:04;;;;;;;2.70;2.50;;;1.70;98.00;;;;;;4995125;28;20037;-51
2023/03/11 05:09:29;;;;;;;2.47;2.38;;;1.70;97.60;;;;;;4994845;28;20072;-53
2023/03/11 05:11:55;;;;;;;6.15;2.75;;;1.60;98.20;;;;;;4994822;28;20097;-49
2023/03/11 05:14:21;;;;;;;2.90;2.72;;;1.60;98.50;;;;;;4993646;28;20034;-53
2023/03/11 05:16:47;;;;;;;2.63;2.53;;;1.60;97.50;;;;;;4994589;28;20034;-49
2023/03/11 05:19:33;;;;;;;2.70;2.60;;;1.60;97.80;;;;;;4994731;28;20485;-55
2023/03/11 05:22:00;;;;;;;2.92;2.72;;;1.50;97.60;;;;;;4993948;28;20370;-50
2023/03/11 05:24:26;;;;;;;2.97;2.78;;;1.60;97.50;;;;;;4994998;28;20034;-51
2023/03/11 05:26:52;;;;;;;2.60;2.40;;;1.60;97.50;;;;;;4993987;28;20465;-48
2023/03/11 05:29:18;;;;;;;3.13;2.78;;;1.60;97.60;;;;;;4993702;28;20030;-48
2023/03/11 05:31:44;;;;;;;2.90;2.70;;;1.70;97.20;;;;;;4993726;28;20510;-53
2023/03/11 05:34:10;;;;;;;2.45;2.35;;;1.70;97.00;;;;;;4993611;28;20027;-49
2023/03/11 05:36:35;;;;;;;2.88;2.65;;;1.80;97.70;;;;;;4993776;28;20062;-49
2023/03/11 05:39:01;;;;;;;4.80;2.88;;;1.70;97.00;;;;;;4993821;28;20026;-51
2023/03/11 05:41:26;;;;;;;7.57;5.55;;;1.70;97.50;;;;;;4993266;28;20085;-50
2023/03/11 05:43:52;;;;;;;3.38;3.15;;;1.70;97.70;;;;;;4993539;28;20022;-49
2023/03/11 05:46:19;;;;;;;2.63;2.53;;;1.80;97.50;;;;;;4994259;28;20486;-51
2023/03/11 05:48:45;;;;;;;4.82;4.22;;;1.80;97.80;;;;;;4993992;28;20057;-48
2023/03/11 05:51:12;;;;;;;2.28;2.17;;;1.80;97.40;;;;;;4994300;28;20027;-48
2023/03/11 05:53:37;;;;;;;3.20;3.00;;;1.90;97.00;;;;;;4994087;28;20042;-48
2023/03/11 05:56:04;;;;;;;2.80;2.60;;;1.80;97.20;;;;;;4993987;28;20109;-48
2023/03/11 05:58:31;;;;;;;2.95;2.75;;;1.80;97.40;;;;;;4993632;28;20030;-51
2023/03/11 06:00:58;;;;;;;2.72;2.53;;;1.90;97.70;;;;;;4994153;28;20506;-49
2023/03/11 06:03:25;;;;;;;3.22;3.03;;;1.90;97.00;;;;;;4993997;28;20493;-49
2023/03/11 06:05:51;;;;;;;2.88;2.67;;;1.90;97.60;;;;;;4993780;28;20654;-52
2023/03/11 06:08:18;;;;;;;3.45;2.70;;;1.90;97.70;;;;;;4993989;28;20074;-49
2023/03/11 06:10:44;;;;;;;4.05;2.60;;;1.90;97.00;;;;;;4993510;28;20057;-51
2023/03/11 06:13:09;;;;;;;3.08;2.83;;;1.90;97.60;;;;;;4993692;28;20062;-49
2023/03/11 06:15:37;;;;;;;3.28;3.05;;;2.00;97.20;;;;;;4992982;28;20037;-48
2023/03/11 06:18:03;;;;;;;3.45;2.63;;;1.90;96.90;;;;;;4993499;28;20484;-49
2023/03/11 06:21:21;;;;;;;2.88;2.50;;;2.00;97.40;;;;;;4993622;28;20031;-49
2023/03/11 06:23:48;;;;;;;2.47;2.38;;;2.00;97.00;;;;;;4994672;28;20084;-50
2023/03/11 06:26:16;;;;;;;2.92;2.60;;;2.00;97.10;;;;;;4993352;28;20401;-52
2023/03/11 06:28:43;;;;;;;3.17;2.97;;;2.00;97.60;;;;;;4991970;28;20058;-49
2023/03/11 06:31:20;;;;;;;3.10;2.90;;;2.00;97.60;;;;;;4993277;28;20480;-50
2023/03/11 06:33:46;;;;;;;3.05;2.67;;;2.00;97.20;;;;;;4993971;28;20033;-51
2023/03/11 06:36:14;;;;;;;2.80;2.60;;;2.10;97.10;;;;;;4993439;28;20030;-49
2023/03/11 06:38:40;;;;;;;3.38;3.17;;;2.00;96.70;;;;;;4993013;28;20026;-49
2023/03/11 06:41:06;;;;;;;2.80;2.60;;;2.20;97.40;;;;;;4991893;28;20029;-49
2023/03/11 06:43:33;;;;;;;3.40;2.90;;;2.20;97.10;;;;;;4991981;28;20029;-48
2023/03/11 06:45:59;;;;;;;2.80;2.60;;;2.20;96.80;;;;;;4993113;28;20586;-49
2023/03/11 06:48:25;;;;;;;2.92;2.72;;;2.30;96.30;;;;;;4992942;28;20038;-52
2023/03/11 06:50:58;;;;;;;2.42;2.28;;;2.30;96.60;;;;;;4993066;28;20035;-49
2023/03/11 06:53:24;;;;;;;3.03;2.83;;;2.30;96.10;;;;;;4993049;28;20133;-49
2023/03/11 06:56:03;;;;;;;2.63;2.42;;;2.40;95.40;;;;;;4992834;28;20058;-50
2023/03/11 06:58:29;;;;;;;2.90;2.70;;;2.40;94.80;;;;;;4991643;28;20034;-48
2023/03/11 07:00:59;;;;;;;2.47;2.30;;;2.40;94.80;;;;;;4993959;28;20072;-52
2023/03/11 07:03:24;;;;;;;4.05;2.65;;;2.40;94.90;;;;;;4992820;28;20019;-51
2023/03/11 07:05:51;;;;;;;2.45;2.35;;;2.50;94.90;;;;;;4992990;28;20026;-51
2023/03/11 07:08:16;;;;;;;2.92;2.53;;;2.60;94.40;;;;;;4992583;28;20153;-48
2023/03/11 07:10:42;;;;;;;2.90;2.70;;;2.50;94.20;;;;;;4992269;28;20117;-51
2023/03/11 07:13:08;;;;;;;2.90;2.70;;;2.50;94.50;;;;;;4992720;28;20022;-51
2023/03/11 07:15:34;;;;;;;2.58;2.30;;;2.60;95.40;;;;;;4992274;28;20026;-53
2023/03/11 07:18:00;;;;;;;3.35;2.50;;;2.60;93.40;;;;;;4992701;28;20482;-50
2023/03/11 07:20:25;;;;;;;3.17;2.65;;;2.60;95.40;;;;;;4992498;28;20034;-55
2023/03/11 07:22:51;;;;;;;6.72;3.13;;;2.60;93.80;;;;;;4992400;28;20105;-49
2023/03/11 07:25:17;;;;;;;3.33;3.10;;;2.60;93.80;;;;;;4992549;28;20129;-49
2023/03/11 07:27:42;;;;;;;4.97;3.50;;;2.70;93.60;;;;;;4992201;28;20117;-50
2023/03/11 07:30:09;;;;;;;5.55;3.08;;;2.80;93.10;;;;;;4992307;28;20084;-52
2023/03/11 07:32:34;;;;;;;8.55;6.55;;;2.90;93.10;;;;;;4992268;28;20022;-52
2023/03/11 07:35:00;;;;;;;2.55;2.42;;;2.60;91.20;;;;;;4992344;28;20031;-50
2023/03/11 07:37:26;;;;;;;3.30;3.00;;;2.70;93.40;;;;;;4992139;28;20494;-51
2023/03/11 07:39:51;;;;;;;2.45;2.35;;;2.80;90.90;;;;;;4992140;28;20038;-49
2023/03/11 07:42:17;;;;;;;2.50;2.40;;;2.80;91.40;;;;;;4992351;28;20018;-49
2023/03/11 07:44:43;;;;;;;7.13;2.20;;;2.60;91.10;;;;;;4991337;28;20433;-51
2023/03/11 07:47:08;;;;;;;4.82;2.42;;;2.70;91.00;;;;;;4992319;28;20377;-50
2023/03/11 07:49:35;;;;;;;3.33;3.03;;;2.80;91.10;;;;;;4991999;28;20406;-51
2023/03/11 07:52:00;;;;;;;2.67;2.50;;;2.60;90.10;;;;;;4990721;28;20565;-49
2023/03/11 07:54:26;;;;;;;4.07;2.85;;;2.70;90.50;;;;;;4990959;28;20030;-52
2023/03/11 07:56:52;;;;;;;6.47;2.63;;;2.70;91.10;;;;;;4992272;28;20505;-49
2023/03/11 07:59:18;;;;;;;2.30;2.20;;;2.50;90.00;;;;;;4991927;28;20129;-50
2023/03/11 08:01:46;;;;;;;2.50;2.40;;;2.60;89.30;;;;;;4992033;28;20030;-53
2023/03/11 08:04:13;;;;;;;6.57;2.60;;;2.60;88.90;;;;;;4992130;28;20485;-49
2023/03/11 08:06:41;;;;;;;4.20;2.65;;;2.50;88.50;;;;;;4992290;28;20501;-49
2023/03/11 08:09:08;;;;;;;2.25;2.15;;;2.50;90.00;;;;;;4992219;28;20536;-51
2023/03/11 08:11:34;;;;;;;6.93;6.22;;;2.60;90.00;;;;;;4991702;28;20030;-55
2023/03/11 08:14:00;;;;;;;2.85;2.60;;;2.50;88.20;;;;;;4992191;28;20577;-49
2023/03/11 08:16:26;;;;;;;5.13;3.33;;;2.60;89.10;;;;;;4991975;28;20034;-56
2023/03/11 08:18:53;;;;;;;3.08;2.88;;;2.70;88.90;;;;;;4992216;28;20027;-51
2023/03/11 08:21:21;;;;;;;2.35;2.25;;;2.80;89.20;;;;;;4991824;28;20462;-51
2023/03/11 08:23:47;;;;;;;2.40;2.30;;;2.90;86.50;;;;;;4991828;28;20134;-51
2023/03/11 08:26:16;;;;;;;3.45;1.90;;;2.80;83.90;;;;;;4991944;28;20027;-52
2023/03/11 08:28:42;;;;;;;2.20;2.00;;;2.70;85.60;;;;;;4991787;28;20038;-50
2023/03/11 08:31:16;;;;;;;3.35;2.28;;;2.60;83.60;;;;;;4991964;28;20347;-49
2023/03/11 08:33:43;;;;;;;3.08;2.80;;;2.30;83.20;;;;;;4990699;28;20034;-48
2023/03/11 08:36:09;;;;;;;2.53;2.30;;;2.50;85.30;;;;;;4991778;28;20030;-52
2023/03/11 08:38:35;;;;;;;5.90;2.20;;;2.50;86.00;;;;;;4992004;28;20034;-49
2023/03/11 08:41:01;;;;;;;4.43;2.30;;;2.70;87.30;;;;;;4990373;28;20361;-52
2023/03/11 08:43:26;;;;;;;2.60;2.40;;;2.70;83.80;;;;;;4991750;28;20085;-56
2023/03/11 08:45:52;;;;;;;2.20;2.00;;;2.60;85.50;;;;;;4991832;28;20019;-54
2023/03/11 08:48:18;;;;;;;2.20;2.10;;;2.50;83.80;;;;;;4991631;28;20033;-55
2023/03/11 08:50:43;;;;;;;2.47;2.28;;;2.50;83.70;;;;;;4991807;28;20026;-56
2023/03/11 08:53:09;;;;;;;6.45;2.67;;;2.70;85.60;;;;;;4991711;28;20030;-52
2023/03/11 08:55:35;;;;;;;2.35;2.15;;;2.90;85.30;;;;;;4993252;28;20022;-55
2023/03/11 08:58:01;;;;;;;2.15;2.05;;;3.20;86.40;;;;;;4995234;28;20028;-57
2023/03/11 09:00:27;;;;;;;4.80;2.75;;;3.60;84.30;;;;;;4994985;28;20030;-56
2023/03/11 09:02:53;;;;;;;2.63;2.28;;;3.70;84.30;;;;;;4993609;28;20072;-56
2023/03/11 09:05:18;;;;;;;2.40;2.13;;;3.90;84.40;;;;;;4994973;28;20030;-49
2023/03/11 09:07:44;;;;;;;4.43;2.17;;;3.90;80.20;;;;;;4994920;28;20054;-49
2023/03/11 09:10:16;;;;;;;2.38;2.25;;;3.80;82.20;;;;;;4993495;28;20057;-50
2023/03/11 09:12:42;;;;;;;2.20;2.00;;;4.00;84.30;;;;;;4993498;28;20030;-52
2023/03/11 09:15:09;;;;;;;3.05;2.33;;;3.90;80.60;;;;;;4994906;28;20041;-52
2023/03/11 09:17:59;;;;;;;6.90;2.85;;;3.80;81.60;;;;;;4994706;28;20385;-50
2023/03/11 09:20:25;;;;;;;2.88;2.17;;;3.60;83.70;;;;;;4994555;28;20023;-54
2023/03/11 09:22:50;;;;;;;2.47;2.17;;;4.00;82.30;;;;;;4994660;28;20033;-51
2023/03/11 09:25:16;;;;;;;2.25;2.00;;;3.60;80.80;;;;;;4994751;28;20114;-52
2023/03/11 09:27:42;;;;;;;2.53;2.33;;;3.70;82.20;;;;;;4994400;28;20054;-51
2023/03/11 09:30:09;;;;;;;4.25;2.10;;;3.50;81.50;;;;;;4994904;28;20357;-49
2023/03/11 09:32:34;;;;;;;2.15;2.00;;;3.80;82.30;;;;;;4993980;28;20031;-52
2023/03/11 09:35:00;;;;;;;2.17;2.08;;;3.90;82.20;;;;;;4994366;28;20030;-50
2023/03/11 09:37:25;;;;;;;2.22;2.03;;;4.10;80.20;;;;;;4994326;28;20019;-55
2023/03/11 09:39:51;;;;;;;2.72;2.45;;;4.00;79.10;;;;;;4994406;28;20057;-51
2023/03/11 09:42:33;;;;;;;3.03;1.90;;;4.00;81.00;;;;;;4994152;28;20053;-52
2023/03/11 09:45:05;;;;;;;3.55;2.28;;;4.20;78.30;;;;;;4994405;28;20027;-50
2023/03/11 09:47:52;;;;;;;2.17;2.08;;;4.30;80.40;;;;;;4994120;28;20022;-52
2023/03/11 09:50:25;;;;;;;2.30;2.00;;;4.50;81.10;;;;;;4994205;28;20501;-50
2023/03/11 09:53:19;;;;;;;2.78;2.58;;;4.80;79.30;;;;;;4994183;28;20113;-50
2023/03/11 09:56:04;;;;;;;2.30;2.10;;;4.90;80.50;;;;;;4993910;28;20041;-49
2023/03/11 09:58:39;;;;;;;2.20;2.10;;;5.10;74.90;;;;;;4992493;28;20022;-56
2023/03/11 10:01:23;;;;;;;2.53;1.90;;;5.20;76.30;;;;;;4993880;28;20029;-49
2023/03/11 10:03:52;;;;;;;4.20;1.83;;;5.10;74.10;;;;;;4993935;28;20466;-49
2023/03/11 10:06:23;;;;;;;2.33;2.00;;;5.40;72.60;;;;;;4993345;28;20461;-55
2023/03/11 10:09:10;;;;;;;1.90;1.80;;;5.60;77.20;;;;;;4993731;28;20616;-49
2023/03/11 10:12:01;;;;;;;5.82;2.35;;;6.00;72.30;;;;;;4993706;28;20382;-49
2023/03/11 10:18:00;;;;;;;2.20;2.10;;;6.30;69.50;;;;;;4993228;28;20102;-53
2023/03/11 10:20:38;;;;;;;2.40;2.20;;;5.70;71.70;;;;;;4993235;28;20049;-49
2023/03/11 10:23:15;;;;;;;2.05;1.85;;;5.80;71.60;;;;;;4993524;28;20105;-50
2023/03/11 10:26:09;;;;;;;3.40;2.00;;;5.90;69.10;;;;;;4993403;28;20023;-54
2023/03/11 10:28:38;;;;;;;;;;;5.90;68.50;;;;;;4992834;28;20038;-53
2023/03/11 10:31:22;;;;;;;1.50;1.50;;;6.40;68.40;;;;;;4994075;28;19910;-51
2023/03/11 10:33:56;;;;;;;2.08;1.58;;;6.50;68.10;;;;;;4993208;28;20408;-54
2023/03/11 10:36:37;;;;;;;3.75;2.20;;;6.40;68.40;;;;;;4993429;28;20035;-51
2023/03/11 10:39:04;;;;;;;4.00;1.70;;;7.20;68.90;;;;;;4993818;28;20666;-52
2023/03/11 10:41:43;;;;;;;3.05;2.08;;;7.30;65.20;;;;;;4993132;28;20157;-48
2023/03/11 10:44:29;;;;;;;2.20;2.00;;;6.80;64.70;;;;;;4993015;28;20331;-51
2023/03/11 10:46:55;;;;;;;2.40;2.20;;;6.30;66.10;;;;;;4992879;28;20179;-56
2023/03/11 10:49:20;;;;;;;2.17;2.08;;;6.50;63.60;;;;;;4993187;28;20141;-51
2023/03/11 10:51:49;;;;;;;2.45;1.70;;;6.40;64.80;;;;;;4992952;28;20444;-56
2023/03/11 10:54:42;;;;;;;1.67;1.58;;;7.70;62.60;;;;;;4992962;28;20022;-51
2023/03/11 10:57:27;;;;;;;1.50;1.40;;;8.30;59.00;;;;;;4993128;28;20109;-53
2023/03/11 10:59:54;;;;;;;2.38;1.60;;;8.40;56.70;;;;;;4992780;28;20393;-51
2023/03/11 11:02:48;;;;;;;2.88;1.45;;;10.20;56.10;;;;;;4992850;28;20049;-54
2023/03/11 11:05:16;;;;;;;2.42;1.40;;;9.90;55.90;;;;;;4991118;28;20022;-50
2023/03/11 11:07:44;;;;;;;2.83;1.48;;;10.00;52.70;;;;;;4992680;28;20092;-50
2023/03/11 11:10:19;;;;;;;1.90;1.70;;;8.20;52.30;;;;;;4992863;28;20605;-49
2023/03/11 11:13:12;;;;;;;2.00;1.58;;;7.80;54.60;;;;;;4992609;28;20449;-50
2023/03/11 11:15:58;;;;;;;1.10;1.10;;;9.10;52.90;;;;;;4992290;28;20030;-50
2023/03/11 11:18:35;;;;;;;1.45;1.35;;;9.80;52.30;;;;;;4991781;28;20390;-52
2023/03/11 11:21:13;;;;;;;2.28;1.52;;;10.10;49.90;;;;;;4992615;28;20389;-53
2023/03/11 11:23:48;;;;;;;2.10;1.38;;;8.40;50.20;;;;;;4992450;28;20030;-51
2023/03/11 11:26:20;;;;;;;1.52;1.42;;;8.40;51.70;;;;;;4992251;28;20034;-52
2023/03/11 11:29:03;;;;;;;2.15;1.60;;;8.90;51.30;;;;;;4992182;28;20038;-53
2023/03/11 11:31:40;;;;;;;1.60;1.50;;;8.10;51.90;;;;;;4992374;28;20026;-62
2023/03/11 11:34:29;;;;;;;2.33;1.60;;;7.90;53.90;;;;;;4992418;28;20593;-53
2023/03/11 11:36:58;;;;;;;1.48;1.25;;;8.20;55.40;;;;;;4990620;28;20390;-56
2023/03/11 11:39:25;;;;;;;1.58;1.23;;;10.10;50.80;;;;;;4991806;28;20061;-55
2023/03/11 11:41:54;;;;;;;1.60;1.20;;;10.50;48.20;;;;;;4992221;28;20458;-58
2023/03/11 11:44:28;;;;;;;1.17;1.08;;;10.60;47.20;;;;;;4991990;28;20033;-55
2023/03/11 11:46:58;;;;;;;3.65;1.60;;;10.60;48.20;;;;;;4991958;28;20018;-55
2023/03/11 11:49:27;;;;;;;2.13;1.55;;;10.60;47.30;;;;;;4991357;28;20030;-53
2023/03/11 11:52:14;;;;;;;1.73;1.48;;;11.40;46.20;;;;;;4992212;28;20018;-55
2023/03/11 11:54:56;;;;;;;1.98;1.15;;;10.20;46.60;;;;;;4991712;28;20015;-55
2023/03/11 11:57:23;;;;;;;1.75;1.10;;;10.90;48.80;;;;;;4990692;28;20478;-56
2023/03/11 11:59:49;;;;;;;6.28;3.20;;;12.70;46.70;;;;;;4991852;28;20132;-53
2023/03/11 12:02:15;;;;;;;7.82;3.05;;;12.10;42.60;;;;;;4990585;28;20160;-56
2023/03/11 12:05:00;;;;;;;6.28;1.98;;;10.70;45.40;;;;;;4991234;28;20113;-51
2023/03/11 12:07:41;;;;;;;1.60;1.50;;;10.20;43.80;;;;;;4985871;28;20018;-55
2023/03/11 12:10:28;;;;;;;12.77;5.18;;;9.00;48.30;;;;;;4991947;28;20081;-57
2023/03/11 12:13:12;;;;;;;2.47;1.90;;;8.60;47.10;;;;;;4990260;28;20400;-54
2023/03/11 12:15:59;;;;;;;12.93;5.95;;;9.30;48.60;;;;;;4991606;28;20100;-54
2023/03/11 12:19:12;;;;;;;3.53;2.90;;;10.50;46.00;;;;;;4990230;28;20600;-51
2023/03/11 12:22:09;;;;;;;2.13;1.40;;;9.90;48.00;;;;;;4948831;29;20027;-54
2023/03/11 12:24:46;;;;;;;5.03;1.70;;;10.30;45.50;;;;;;4950122;29;20551;-54
2023/03/11 12:27:25;;;;;;;1.65;1.40;;;8.80;47.60;;;;;;4983543;28;20070;-57
2023/03/11 12:29:58;;;;;;;2.92;2.63;;;8.30;49.70;;;;;;4973141;28;20059;-53
2023/03/11 12:32:48;;;;;;;1.63;1.52;;;7.90;48.30;;;;;;4972584;28;20371;-54
2023/03/11 12:35:29;;;;;;;1.90;1.80;;;6.90;49.80;;;;;;4967203;28;20027;-53
2023/03/11 12:38:15;;;;;;;1.48;1.38;;;6.90;47.90;;;;;;4967716;28;20027;-53
2023/03/11 12:40:43;;;;;;;3.35;1.52;;;7.80;49.00;;;;;;4971360;28;20047;-57
2023/03/11 12:43:32;;;;;;;2.05;1.25;;;9.40;45.00;;;;;;4964726;28;20501;-51
2023/03/11 12:45:59;;;;;;;1.52;1.42;;;10.10;43.80;;;;;;4964851;28;20039;-54
2023/03/11 12:48:28;;;;;;;1.58;1.08;;;11.40;42.60;;;;;;4964718;28;20031;-54
2023/03/11 12:50:57;;;;;;;2.28;1.35;;;12.00;42.30;;;;;;4964884;28;20061;-49
2023/03/11 12:53:43;;;;;;;2.30;1.20;;;11.00;42.60;;;;;;4981100;28;20140;-51
2023/03/11 12:56:23;;;;;;;1.48;1.30;;;11.70;42.20;;;;;;4967393;28;20038;-53
2023/03/11 12:59:27;;;;;;;1.33;1.20;;;13.20;41.60;;;;;;4973090;28;20042;-54
2023/03/11 13:02:22;;;;;;;1.55;1.45;;;11.40;41.30;;;;;;4965273;28;20394;-50
2023/03/11 13:05:33;;;;;;;3.13;2.13;;;9.40;44.90;;;;;;4978863;28;20023;-52
2023/03/11 13:08:19;;;;;;;4.30;1.70;;;9.00;48.50;;;;;;4960477;28;22602;-53
2023/03/11 13:10:53;;;;;;;4.10;2.15;;;7.00;51.70;;;;;;4965582;28;20035;-51
2023/03/11 13:13:37;;;;;;;4.88;2.65;;;6.30;54.20;;;;;;4967804;28;20035;-56
2023/03/11 13:16:12;;;;;;;3.50;2.33;;;6.10;54.20;;;;;;4979245;28;20023;-50